VDPP/PNH METAR and TAF weather

Enter ICAO airport designator
Station Type Date Time Source
VDPP METAR 2021/02/27 21:30 UTC NOAA

VDPP 272130Z 16007KT 9000 FEW017 25/24 Q1007


Station Type Date Time Source
VDPP Decoded METAR 2021/02/27 21:30 UTC NOAA

Phnom-Penh / Pochentong, Cambodia (VDPP) 11-33N 104-51E 10M
Feb 27, 2021 - 04:30 PM EST / 2021.02.27 2130 UTC
Wind: from the SSE (160 degrees) at 8 MPH (7 KT):0
Visibility: 5 mile(s):0
Sky conditions: mostly clear
Temperature: 77 F (25 C)
Dew Point: 75 F (24 C)
Relative Humidity: 94%
Pressure (altimeter): 29.74 in. Hg (1007 hPa)
ob: VDPP 272130Z 16007KT 9000 FEW017 25/24 Q1007
cycle: 21

Station Type Date Time Source
VDPP TAF 2021/02/27 18:00 UTC NOAA

TAF VDPP 271700Z 2718/2812 18008KT 9999 SCT017

Example: see airport list